sensor_id;sensor_type;location;lat;lon;timestamp;P1;durP1;ratioP1;P2;durP2;ratioP2
56435;SDS011;42335;44.872;20.658;2023-07-29T00:00:38;14.00;;;5.50;;
56435;SDS011;42335;44.872;20.658;2023-07-29T00:03:04;16.13;;;5.35;;
56435;SDS011;42335;44.872;20.658;2023-07-29T00:05:30;10.35;;;5.45;;
56435;SDS011;42335;44.872;20.658;2023-07-29T00:07:55;9.30;;;5.20;;
56435;SDS011;42335;44.872;20.658;2023-07-29T00:10:21;10.07;;;4.70;;
56435;SDS011;42335;44.872;20.658;2023-07-29T00:12:47;8.80;;;5.43;;
56435;SDS011;42335;44.872;20.658;2023-07-29T00:15:13;13.20;;;6.05;;
56435;SDS011;42335;44.872;20.658;2023-07-29T00:17:38;11.02;;;5.38;;
56435;SDS011;42335;44.872;20.658;2023-07-29T00:20:05;9.23;;;5.90;;
56435;SDS011;42335;44.872;20.658;2023-07-29T00:22:31;8.95;;;5.30;;
56435;SDS011;42335;44.872;20.658;2023-07-29T00:24:57;9.70;;;5.50;;
56435;SDS011;42335;44.872;20.658;2023-07-29T00:27:24;12.80;;;5.93;;
56435;SDS011;42335;44.872;20.658;2023-07-29T00:29:50;19.42;;;6.57;;
56435;SDS011;42335;44.872;20.658;2023-07-29T00:32:16;9.45;;;5.95;;
56435;SDS011;42335;44.872;20.658;2023-07-29T00:34:42;13.02;;;6.20;;
56435;SDS011;42335;44.872;20.658;2023-07-29T00:37:08;13.95;;;6.35;;
56435;SDS011;42335;44.872;20.658;2023-07-29T00:39:34;15.25;;;8.30;;
56435;SDS011;42335;44.872;20.658;2023-07-29T00:42:00;10.30;;;7.55;;
56435;SDS011;42335;44.872;20.658;2023-07-29T00:44:26;16.05;;;7.47;;
56435;SDS011;42335;44.872;20.658;2023-07-29T00:46:52;12.90;;;6.40;;
56435;SDS011;42335;44.872;20.658;2023-07-29T00:49:19;17.55;;;7.38;;
56435;SDS011;42335;44.872;20.658;2023-07-29T00:51:45;26.30;;;7.07;;
56435;SDS011;42335;44.872;20.658;2023-07-29T00:54:12;12.82;;;7.35;;
56435;SDS011;42335;44.872;20.658;2023-07-29T00:56:39;14.65;;;6.80;;
56435;SDS011;42335;44.872;20.658;2023-07-29T00:59:05;14.90;;;6.10;;
56435;SDS011;42335;44.872;20.658;2023-07-29T01:01:32;16.30;;;6.53;;
56435;SDS011;42335;44.872;20.658;2023-07-29T01:03:58;13.98;;;6.60;;
56435;SDS011;42335;44.872;20.658;2023-07-29T01:12:01;12.88;;;5.43;;
56435;SDS011;42335;44.872;20.658;2023-07-29T01:14:26;18.73;;;6.03;;
56435;SDS011;42335;44.872;20.658;2023-07-29T01:16:55;13.00;;;5.95;;
56435;SDS011;42335;44.872;20.658;2023-07-29T01:19:32;16.15;;;6.35;;
56435;SDS011;42335;44.872;20.658;2023-07-29T01:22:02;12.43;;;5.78;;
56435;SDS011;42335;44.872;20.658;2023-07-29T01:24:28;10.05;;;5.30;;
56435;SDS011;42335;44.872;20.658;2023-07-29T01:26:54;11.95;;;6.65;;
56435;SDS011;42335;44.872;20.658;2023-07-29T01:29:20;9.38;;;5.80;;
56435;SDS011;42335;44.872;20.658;2023-07-29T01:31:47;9.38;;;5.45;;
56435;SDS011;42335;44.872;20.658;2023-07-29T01:37:12;10.68;;;6.60;;
56435;SDS011;42335;44.872;20.658;2023-07-29T01:39:40;10.02;;;6.00;;
56435;SDS011;42335;44.872;20.658;2023-07-29T01:42:07;15.38;;;6.53;;
56435;SDS011;42335;44.872;20.658;2023-07-29T01:44:33;18.40;;;6.93;;
56435;SDS011;42335;44.872;20.658;2023-07-29T01:47:00;12.95;;;6.70;;
56435;SDS011;42335;44.872;20.658;2023-07-29T01:49:26;14.70;;;7.00;;
56435;SDS011;42335;44.872;20.658;2023-07-29T01:51:52;9.07;;;6.10;;
56435;SDS011;42335;44.872;20.658;2023-07-29T01:54:18;12.75;;;6.53;;
56435;SDS011;42335;44.872;20.658;2023-07-29T01:56:43;11.75;;;6.57;;
56435;SDS011;42335;44.872;20.658;2023-07-29T01:59:09;13.80;;;6.20;;
56435;SDS011;42335;44.872;20.658;2023-07-29T02:01:35;9.27;;;5.55;;
56435;SDS011;42335;44.872;20.658;2023-07-29T02:04:00;12.27;;;7.53;;
56435;SDS011;42335;44.872;20.658;2023-07-29T02:06:26;15.65;;;5.95;;
56435;SDS011;42335;44.872;20.658;2023-07-29T02:08:52;8.55;;;5.63;;
56435;SDS011;42335;44.872;20.658;2023-07-29T02:11:19;12.00;;;6.35;;
56435;SDS011;42335;44.872;20.658;2023-07-29T02:13:45;11.63;;;7.15;;
56435;SDS011;42335;44.872;20.658;2023-07-29T02:16:11;12.30;;;6.65;;
56435;SDS011;42335;44.872;20.658;2023-07-29T02:18:36;10.13;;;6.97;;
56435;SDS011;42335;44.872;20.658;2023-07-29T02:21:02;12.80;;;8.07;;
56435;SDS011;42335;44.872;20.658;2023-07-29T02:23:28;13.25;;;7.15;;
56435;SDS011;42335;44.872;20.658;2023-07-29T02:25:54;14.27;;;7.03;;
56435;SDS011;42335;44.872;20.658;2023-07-29T02:28:19;15.30;;;7.55;;
56435;SDS011;42335;44.872;20.658;2023-07-29T02:30:45;12.77;;;7.47;;
56435;SDS011;42335;44.872;20.658;2023-07-29T02:33:11;12.65;;;7.15;;
56435;SDS011;42335;44.872;20.658;2023-07-29T02:35:36;14.00;;;6.63;;
56435;SDS011;42335;44.872;20.658;2023-07-29T02:38:02;16.13;;;7.18;;
56435;SDS011;42335;44.872;20.658;2023-07-29T02:40:28;11.23;;;6.90;;
56435;SDS011;42335;44.872;20.658;2023-07-29T02:42:54;18.15;;;8.27;;
56435;SDS011;42335;44.872;20.658;2023-07-29T02:45:20;11.75;;;7.60;;
56435;SDS011;42335;44.872;20.658;2023-07-29T02:47:45;13.50;;;8.68;;
56435;SDS011;42335;44.872;20.658;2023-07-29T02:50:11;12.77;;;8.75;;
56435;SDS011;42335;44.872;20.658;2023-07-29T02:52:37;20.90;;;9.55;;
56435;SDS011;42335;44.872;20.658;2023-07-29T02:55:03;14.65;;;8.55;;
56435;SDS011;42335;44.872;20.658;2023-07-29T02:57:29;19.45;;;8.63;;
56435;SDS011;42335;44.872;20.658;2023-07-29T02:59:55;13.38;;;9.50;;
56435;SDS011;42335;44.872;20.658;2023-07-29T03:02:20;12.38;;;8.18;;
56435;SDS011;42335;44.872;20.658;2023-07-29T03:04:47;16.67;;;8.30;;
56435;SDS011;42335;44.872;20.658;2023-07-29T03:07:13;12.15;;;7.32;;
56435;SDS011;42335;44.872;20.658;2023-07-29T03:09:39;15.23;;;7.97;;
56435;SDS011;42335;44.872;20.658;2023-07-29T03:12:07;18.80;;;9.73;;
56435;SDS011;42335;44.872;20.658;2023-07-29T03:14:33;22.70;;;10.88;;
56435;SDS011;42335;44.872;20.658;2023-07-29T03:17:02;17.23;;;10.13;;
56435;SDS011;42335;44.872;20.658;2023-07-29T03:19:29;26.25;;;11.07;;
56435;SDS011;42335;44.872;20.658;2023-07-29T03:21:55;25.80;;;10.73;;
56435;SDS011;42335;44.872;20.658;2023-07-29T03:24:21;16.00;;;9.35;;
56435;SDS011;42335;44.872;20.658;2023-07-29T03:26:47;14.32;;;8.43;;
56435;SDS011;42335;44.872;20.658;2023-07-29T03:29:13;12.32;;;8.50;;
56435;SDS011;42335;44.872;20.658;2023-07-29T03:31:39;13.10;;;7.82;;
56435;SDS011;42335;44.872;20.658;2023-07-29T03:34:04;15.40;;;7.82;;
56435;SDS011;42335;44.872;20.658;2023-07-29T03:36:30;12.50;;;7.68;;
56435;SDS011;42335;44.872;20.658;2023-07-29T03:38:56;22.27;;;7.40;;
56435;SDS011;42335;44.872;20.658;2023-07-29T03:41:23;14.48;;;7.43;;
56435;SDS011;42335;44.872;20.658;2023-07-29T03:43:49;10.60;;;6.93;;
56435;SDS011;42335;44.872;20.658;2023-07-29T03:46:14;13.25;;;7.07;;
56435;SDS011;42335;44.872;20.658;2023-07-29T03:48:44;12.70;;;6.43;;
56435;SDS011;42335;44.872;20.658;2023-07-29T03:51:10;11.43;;;6.57;;
56435;SDS011;42335;44.872;20.658;2023-07-29T03:53:35;8.63;;;5.97;;
56435;SDS011;42335;44.872;20.658;2023-07-29T03:56:01;11.73;;;6.35;;
56435;SDS011;42335;44.872;20.658;2023-07-29T03:58:27;9.63;;;6.43;;
56435;SDS011;42335;44.872;20.658;2023-07-29T04:00:52;12.60;;;7.43;;
56435;SDS011;42335;44.872;20.658;2023-07-29T04:03:18;13.73;;;6.75;;
56435;SDS011;42335;44.872;20.658;2023-07-29T04:05:44;16.30;;;6.95;;
56435;SDS011;42335;44.872;20.658;2023-07-29T04:08:09;10.32;;;6.53;;
56435;SDS011;42335;44.872;20.658;2023-07-29T04:10:35;11.55;;;7.15;;
56435;SDS011;42335;44.872;20.658;2023-07-29T04:13:02;16.88;;;6.70;;
56435;SDS011;42335;44.872;20.658;2023-07-29T04:15:28;14.15;;;6.68;;
56435;SDS011;42335;44.872;20.658;2023-07-29T04:17:55;16.05;;;7.50;;
56435;SDS011;42335;44.872;20.658;2023-07-29T04:20:20;14.30;;;8.18;;
56435;SDS011;42335;44.872;20.658;2023-07-29T04:22:46;17.13;;;7.78;;
56435;SDS011;42335;44.872;20.658;2023-07-29T04:25:11;22.10;;;7.50;;
56435;SDS011;42335;44.872;20.658;2023-07-29T04:27:38;10.02;;;7.07;;
56435;SDS011;42335;44.872;20.658;2023-07-29T04:30:04;10.32;;;6.70;;
56435;SDS011;42335;44.872;20.658;2023-07-29T04:32:30;13.52;;;6.53;;
56435;SDS011;42335;44.872;20.658;2023-07-29T04:34:56;11.77;;;6.90;;
56435;SDS011;42335;44.872;20.658;2023-07-29T04:37:22;13.57;;;7.50;;
56435;SDS011;42335;44.872;20.658;2023-07-29T04:39:47;16.55;;;9.88;;
56435;SDS011;42335;44.872;20.658;2023-07-29T04:42:13;16.05;;;7.97;;
56435;SDS011;42335;44.872;20.658;2023-07-29T04:44:39;14.63;;;8.40;;
56435;SDS011;42335;44.872;20.658;2023-07-29T04:47:06;18.25;;;8.85;;
56435;SDS011;42335;44.872;20.658;2023-07-29T04:49:32;12.73;;;7.70;;
56435;SDS011;42335;44.872;20.658;2023-07-29T04:51:58;13.85;;;8.10;;
56435;SDS011;42335;44.872;20.658;2023-07-29T04:54:23;22.35;;;8.25;;
56435;SDS011;42335;44.872;20.658;2023-07-29T04:56:49;17.58;;;7.25;;
56435;SDS011;42335;44.872;20.658;2023-07-29T04:59:15;13.68;;;7.47;;
56435;SDS011;42335;44.872;20.658;2023-07-29T05:01:41;26.13;;;8.90;;
56435;SDS011;42335;44.872;20.658;2023-07-29T05:04:08;18.48;;;8.25;;
56435;SDS011;42335;44.872;20.658;2023-07-29T05:06:34;21.40;;;10.32;;
56435;SDS011;42335;44.872;20.658;2023-07-29T05:09:12;20.10;;;9.93;;
56435;SDS011;42335;44.872;20.658;2023-07-29T05:11:38;16.55;;;9.10;;
56435;SDS011;42335;44.872;20.658;2023-07-29T05:14:04;18.55;;;9.50;;
56435;SDS011;42335;44.872;20.658;2023-07-29T05:16:31;16.33;;;8.63;;
56435;SDS011;42335;44.872;20.658;2023-07-29T05:18:57;13.18;;;7.95;;
56435;SDS011;42335;44.872;20.658;2023-07-29T05:21:23;23.65;;;10.23;;
56435;SDS011;42335;44.872;20.658;2023-07-29T05:23:49;15.50;;;8.57;;
56435;SDS011;42335;44.872;20.658;2023-07-29T05:26:15;16.05;;;7.78;;
56435;SDS011;42335;44.872;20.658;2023-07-29T05:28:41;12.90;;;8.05;;
56435;SDS011;42335;44.872;20.658;2023-07-29T05:31:07;18.40;;;6.97;;
56435;SDS011;42335;44.872;20.658;2023-07-29T05:33:32;15.32;;;7.88;;
56435;SDS011;42335;44.872;20.658;2023-07-29T05:35:58;21.75;;;7.50;;
56435;SDS011;42335;44.872;20.658;2023-07-29T05:38:24;11.02;;;7.50;;
56435;SDS011;42335;44.872;20.658;2023-07-29T05:40:50;10.80;;;6.93;;
56435;SDS011;42335;44.872;20.658;2023-07-29T05:43:16;13.23;;;6.85;;
56435;SDS011;42335;44.872;20.658;2023-07-29T05:45:42;9.80;;;6.43;;
56435;SDS011;42335;44.872;20.658;2023-07-29T05:48:08;16.05;;;7.32;;
56435;SDS011;42335;44.872;20.658;2023-07-29T05:50:34;16.35;;;7.45;;
56435;SDS011;42335;44.872;20.658;2023-07-29T05:53:00;15.50;;;7.10;;
56435;SDS011;42335;44.872;20.658;2023-07-29T05:55:26;12.13;;;7.55;;
56435;SDS011;42335;44.872;20.658;2023-07-29T05:57:52;13.68;;;7.30;;
56435;SDS011;42335;44.872;20.658;2023-07-29T06:00:19;18.42;;;7.43;;
56435;SDS011;42335;44.872;20.658;2023-07-29T06:02:46;19.83;;;7.72;;
56435;SDS011;42335;44.872;20.658;2023-07-29T06:05:12;16.30;;;8.68;;
56435;SDS011;42335;44.872;20.658;2023-07-29T06:07:38;16.92;;;9.77;;
56435;SDS011;42335;44.872;20.658;2023-07-29T06:10:09;19.13;;;10.30;;
56435;SDS011;42335;44.872;20.658;2023-07-29T06:12:37;24.85;;;10.93;;
56435;SDS011;42335;44.872;20.658;2023-07-29T06:15:03;30.80;;;10.75;;
56435;SDS011;42335;44.872;20.658;2023-07-29T06:17:29;15.85;;;9.98;;
56435;SDS011;42335;44.872;20.658;2023-07-29T06:19:55;14.73;;;8.52;;
56435;SDS011;42335;44.872;20.658;2023-07-29T06:22:20;14.25;;;7.43;;
56435;SDS011;42335;44.872;20.658;2023-07-29T06:24:46;14.77;;;7.32;;
56435;SDS011;42335;44.872;20.658;2023-07-29T06:27:12;18.63;;;7.97;;
56435;SDS011;42335;44.872;20.658;2023-07-29T06:29:37;13.93;;;8.45;;
56435;SDS011;42335;44.872;20.658;2023-07-29T06:32:03;20.25;;;8.73;;
56435;SDS011;42335;44.872;20.658;2023-07-29T06:34:29;21.50;;;10.00;;
56435;SDS011;42335;44.872;20.658;2023-07-29T06:36:55;23.50;;;11.75;;
56435;SDS011;42335;44.872;20.658;2023-07-29T06:39:21;23.77;;;11.95;;
56435;SDS011;42335;44.872;20.658;2023-07-29T06:41:47;18.13;;;11.43;;
56435;SDS011;42335;44.872;20.658;2023-07-29T06:44:13;29.58;;;12.13;;
56435;SDS011;42335;44.872;20.658;2023-07-29T06:46:39;16.08;;;9.98;;
56435;SDS011;42335;44.872;20.658;2023-07-29T06:49:05;16.35;;;10.27;;
56435;SDS011;42335;44.872;20.658;2023-07-29T06:51:31;20.65;;;9.95;;
56435;SDS011;42335;44.872;20.658;2023-07-29T06:54:00;23.15;;;11.68;;
56435;SDS011;42335;44.872;20.658;2023-07-29T06:56:26;26.35;;;10.55;;
56435;SDS011;42335;44.872;20.658;2023-07-29T06:58:52;21.77;;;10.18;;
56435;SDS011;42335;44.872;20.658;2023-07-29T07:01:18;25.23;;;11.15;;
56435;SDS011;42335;44.872;20.658;2023-07-29T07:03:44;14.82;;;9.82;;
56435;SDS011;42335;44.872;20.658;2023-07-29T07:06:10;20.60;;;9.85;;
56435;SDS011;42335;44.872;20.658;2023-07-29T07:08:36;15.30;;;8.80;;
56435;SDS011;42335;44.872;20.658;2023-07-29T07:11:02;15.55;;;6.65;;
56435;SDS011;42335;44.872;20.658;2023-07-29T07:13:28;22.48;;;9.20;;
56435;SDS011;42335;44.872;20.658;2023-07-29T07:15:54;13.35;;;6.90;;
56435;SDS011;42335;44.872;20.658;2023-07-29T07:18:20;14.95;;;7.30;;
56435;SDS011;42335;44.872;20.658;2023-07-29T07:20:50;20.52;;;7.68;;
56435;SDS011;42335;44.872;20.658;2023-07-29T07:23:16;20.08;;;8.20;;
56435;SDS011;42335;44.872;20.658;2023-07-29T07:25:42;11.82;;;6.88;;
56435;SDS011;42335;44.872;20.658;2023-07-29T07:28:09;11.48;;;7.60;;
56435;SDS011;42335;44.872;20.658;2023-07-29T07:30:35;21.63;;;7.97;;
56435;SDS011;42335;44.872;20.658;2023-07-29T07:33:01;17.95;;;7.32;;
56435;SDS011;42335;44.872;20.658;2023-07-29T07:35:27;10.82;;;5.90;;
56435;SDS011;42335;44.872;20.658;2023-07-29T07:37:53;9.73;;;5.90;;
56435;SDS011;42335;44.872;20.658;2023-07-29T07:40:19;22.00;;;6.90;;
56435;SDS011;42335;44.872;20.658;2023-07-29T07:42:45;19.52;;;8.07;;
56435;SDS011;42335;44.872;20.658;2023-07-29T07:45:11;17.83;;;6.93;;
56435;SDS011;42335;44.872;20.658;2023-07-29T07:47:37;12.05;;;7.20;;
56435;SDS011;42335;44.872;20.658;2023-07-29T07:50:03;10.85;;;6.63;;
56435;SDS011;42335;44.872;20.658;2023-07-29T07:52:29;18.00;;;7.22;;
56435;SDS011;42335;44.872;20.658;2023-07-29T07:54:55;18.33;;;7.65;;
56435;SDS011;42335;44.872;20.658;2023-07-29T07:57:21;16.13;;;7.00;;
56435;SDS011;42335;44.872;20.658;2023-07-29T07:59:47;14.07;;;7.03;;
56435;SDS011;42335;44.872;20.658;2023-07-29T08:02:13;14.35;;;6.82;;
56435;SDS011;42335;44.872;20.658;2023-07-29T08:04:39;12.32;;;6.22;;
56435;SDS011;42335;44.872;20.658;2023-07-29T08:07:05;16.80;;;6.57;;
56435;SDS011;42335;44.872;20.658;2023-07-29T08:09:30;14.68;;;6.95;;
56435;SDS011;42335;44.872;20.658;2023-07-29T08:11:56;16.55;;;6.32;;
56435;SDS011;42335;44.872;20.658;2023-07-29T08:14:22;14.60;;;6.82;;
56435;SDS011;42335;44.872;20.658;2023-07-29T08:16:47;14.65;;;6.95;;
56435;SDS011;42335;44.872;20.658;2023-07-29T08:19:13;12.88;;;6.50;;
56435;SDS011;42335;44.872;20.658;2023-07-29T08:21:39;9.20;;;6.47;;
56435;SDS011;42335;44.872;20.658;2023-07-29T08:24:04;10.73;;;6.40;;
56435;SDS011;42335;44.872;20.658;2023-07-29T08:26:32;14.27;;;6.68;;
56435;SDS011;42335;44.872;20.658;2023-07-29T08:28:58;16.60;;;7.20;;
56435;SDS011;42335;44.872;20.658;2023-07-29T08:31:23;12.93;;;7.50;;
56435;SDS011;42335;44.872;20.658;2023-07-29T08:33:49;10.25;;;6.70;;
56435;SDS011;42335;44.872;20.658;2023-07-29T08:36:15;11.27;;;6.95;;
56435;SDS011;42335;44.872;20.658;2023-07-29T08:38:41;16.63;;;7.25;;
56435;SDS011;42335;44.872;20.658;2023-07-29T08:41:13;19.58;;;6.57;;
56435;SDS011;42335;44.872;20.658;2023-07-29T08:46:21;8.48;;;5.10;;
56435;SDS011;42335;44.872;20.658;2023-07-29T08:48:47;11.57;;;5.53;;
56435;SDS011;42335;44.872;20.658;2023-07-29T08:51:13;12.60;;;5.53;;
56435;SDS011;42335;44.872;20.658;2023-07-29T08:53:40;13.68;;;5.90;;
56435;SDS011;42335;44.872;20.658;2023-07-29T08:56:06;14.50;;;6.97;;
56435;SDS011;42335;44.872;20.658;2023-07-29T08:58:33;13.40;;;6.30;;
56435;SDS011;42335;44.872;20.658;2023-07-29T09:00:59;18.73;;;6.53;;
56435;SDS011;42335;44.872;20.658;2023-07-29T09:03:25;11.70;;;6.05;;
56435;SDS011;42335;44.872;20.658;2023-07-29T09:05:51;23.15;;;6.35;;
56435;SDS011;42335;44.872;20.658;2023-07-29T09:08:18;13.80;;;5.57;;
56435;SDS011;42335;44.872;20.658;2023-07-29T09:10:46;17.45;;;6.53;;
56435;SDS011;42335;44.872;20.658;2023-07-29T09:13:12;17.33;;;6.43;;
56435;SDS011;42335;44.872;20.658;2023-07-29T09:15:38;11.23;;;6.97;;
56435;SDS011;42335;44.872;20.658;2023-07-29T09:18:17;11.43;;;5.38;;
56435;SDS011;42335;44.872;20.658;2023-07-29T09:20:45;13.93;;;5.68;;
56435;SDS011;42335;44.872;20.658;2023-07-29T09:23:12;11.02;;;5.25;;
56435;SDS011;42335;44.872;20.658;2023-07-29T09:25:38;16.67;;;5.43;;
56435;SDS011;42335;44.872;20.658;2023-07-29T09:28:09;12.40;;;5.65;;
56435;SDS011;42335;44.872;20.658;2023-07-29T09:30:35;14.93;;;5.30;;
56435;SDS011;42335;44.872;20.658;2023-07-29T09:33:01;8.95;;;4.55;;
56435;SDS011;42335;44.872;20.658;2023-07-29T09:35:29;7.43;;;4.90;;
56435;SDS011;42335;44.872;20.658;2023-07-29T09:37:55;11.80;;;5.00;;
56435;SDS011;42335;44.872;20.658;2023-07-29T09:40:21;9.90;;;4.35;;
56435;SDS011;42335;44.872;20.658;2023-07-29T09:42:56;7.68;;;3.97;;
56435;SDS011;42335;44.872;20.658;2023-07-29T09:45:23;9.95;;;4.40;;
56435;SDS011;42335;44.872;20.658;2023-07-29T09:47:49;8.77;;;4.43;;
56435;SDS011;42335;44.872;20.658;2023-07-29T09:50:16;8.38;;;4.97;;
56435;SDS011;42335;44.872;20.658;2023-07-29T09:52:42;12.93;;;4.88;;
56435;SDS011;42335;44.872;20.658;2023-07-29T09:55:12;9.07;;;4.60;;
56435;SDS011;42335;44.872;20.658;2023-07-29T10:00:07;10.52;;;5.03;;
56435;SDS011;42335;44.872;20.658;2023-07-29T10:02:36;7.80;;;5.05;;
56435;SDS011;42335;44.872;20.658;2023-07-29T10:05:04;13.32;;;4.53;;
56435;SDS011;42335;44.872;20.658;2023-07-29T10:07:30;14.77;;;5.30;;
56435;SDS011;42335;44.872;20.658;2023-07-29T10:09:56;8.38;;;4.18;;
56435;SDS011;42335;44.872;20.658;2023-07-29T10:12:24;11.82;;;4.57;;
56435;SDS011;42335;44.872;20.658;2023-07-29T10:14:51;8.02;;;4.43;;
56435;SDS011;42335;44.872;20.658;2023-07-29T10:17:18;14.75;;;4.53;;
56435;SDS011;42335;44.872;20.658;2023-07-29T10:19:45;9.27;;;4.30;;
56435;SDS011;42335;44.872;20.658;2023-07-29T10:22:12;9.27;;;4.18;;
56435;SDS011;42335;44.872;20.658;2023-07-29T10:24:42;7.57;;;4.20;;
56435;SDS011;42335;44.872;20.658;2023-07-29T10:27:09;10.18;;;4.25;;
56435;SDS011;42335;44.872;20.658;2023-07-29T10:29:40;8.73;;;4.57;;
56435;SDS011;42335;44.872;20.658;2023-07-29T10:32:08;9.13;;;4.43;;
56435;SDS011;42335;44.872;20.658;2023-07-29T10:34:36;10.32;;;4.70;;
56435;SDS011;42335;44.872;20.658;2023-07-29T10:37:03;13.55;;;4.55;;
56435;SDS011;42335;44.872;20.658;2023-07-29T10:39:37;12.18;;;4.35;;
56435;SDS011;42335;44.872;20.658;2023-07-29T10:42:05;11.38;;;4.10;;
56435;SDS011;42335;44.872;20.658;2023-07-29T10:47:13;8.82;;;4.38;;
56435;SDS011;42335;44.872;20.658;2023-07-29T10:49:58;9.52;;;4.72;;
56435;SDS011;42335;44.872;20.658;2023-07-29T10:54:59;9.02;;;3.83;;
56435;SDS011;42335;44.872;20.658;2023-07-29T10:57:31;10.25;;;4.07;;
56435;SDS011;42335;44.872;20.658;2023-07-29T10:59:58;5.68;;;3.47;;
56435;SDS011;42335;44.872;20.658;2023-07-29T11:02:36;11.02;;;4.60;;
56435;SDS011;42335;44.872;20.658;2023-07-29T11:05:07;9.43;;;4.53;;
56435;SDS011;42335;44.872;20.658;2023-07-29T11:07:51;12.05;;;5.22;;
56435;SDS011;42335;44.872;20.658;2023-07-29T11:10:17;6.45;;;3.53;;
56435;SDS011;42335;44.872;20.658;2023-07-29T11:12:46;6.78;;;4.05;;
56435;SDS011;42335;44.872;20.658;2023-07-29T11:17:41;7.03;;;3.85;;
56435;SDS011;42335;44.872;20.658;2023-07-29T11:20:08;10.90;;;4.00;;
56435;SDS011;42335;44.872;20.658;2023-07-29T11:22:35;10.25;;;3.65;;
56435;SDS011;42335;44.872;20.658;2023-07-29T11:25:01;8.40;;;4.20;;
56435;SDS011;42335;44.872;20.658;2023-07-29T11:27:27;14.45;;;5.18;;
56435;SDS011;42335;44.872;20.658;2023-07-29T11:29:59;10.20;;;4.18;;
56435;SDS011;42335;44.872;20.658;2023-07-29T11:32:27;7.97;;;4.20;;
56435;SDS011;42335;44.872;20.658;2023-07-29T11:34:53;7.68;;;4.00;;
56435;SDS011;42335;44.872;20.658;2023-07-29T11:37:19;9.10;;;4.78;;
56435;SDS011;42335;44.872;20.658;2023-07-29T11:39:47;6.72;;;3.53;;
56435;SDS011;42335;44.872;20.658;2023-07-29T11:42:14;6.00;;;4.18;;
56435;SDS011;42335;44.872;20.658;2023-07-29T11:44:40;8.63;;;4.05;;
56435;SDS011;42335;44.872;20.658;2023-07-29T11:47:08;4.55;;;2.90;;
56435;SDS011;42335;44.872;20.658;2023-07-29T11:49:34;7.18;;;3.38;;
56435;SDS011;42335;44.872;20.658;2023-07-29T11:52:01;5.85;;;3.35;;
56435;SDS011;42335;44.872;20.658;2023-07-29T11:54:28;9.63;;;3.53;;
56435;SDS011;42335;44.872;20.658;2023-07-29T11:56:54;9.68;;;3.45;;
56435;SDS011;42335;44.872;20.658;2023-07-29T11:59:21;10.13;;;4.00;;
56435;SDS011;42335;44.872;20.658;2023-07-29T12:01:47;10.98;;;3.00;;
56435;SDS011;42335;44.872;20.658;2023-07-29T12:04:13;11.70;;;3.00;;
56435;SDS011;42335;44.872;20.658;2023-07-29T12:06:39;5.22;;;2.97;;
56435;SDS011;42335;44.872;20.658;2023-07-29T12:09:05;12.13;;;3.30;;
56435;SDS011;42335;44.872;20.658;2023-07-29T12:11:32;5.38;;;3.10;;
56435;SDS011;42335;44.872;20.658;2023-07-29T12:13:59;5.82;;;3.42;;
56435;SDS011;42335;44.872;20.658;2023-07-29T12:16:25;6.93;;;3.08;;
56435;SDS011;42335;44.872;20.658;2023-07-29T12:18:51;12.10;;;3.40;;
56435;SDS011;42335;44.872;20.658;2023-07-29T12:21:20;6.85;;;3.22;;
56435;SDS011;42335;44.872;20.658;2023-07-29T12:23:46;6.32;;;2.90;;
56435;SDS011;42335;44.872;20.658;2023-07-29T12:26:12;7.97;;;3.47;;
56435;SDS011;42335;44.872;20.658;2023-07-29T12:28:38;4.75;;;2.80;;
56435;SDS011;42335;44.872;20.658;2023-07-29T12:31:10;4.87;;;2.67;;
56435;SDS011;42335;44.872;20.658;2023-07-29T12:33:36;4.72;;;3.00;;
56435;SDS011;42335;44.872;20.658;2023-07-29T12:36:04;5.05;;;3.00;;
56435;SDS011;42335;44.872;20.658;2023-07-29T12:38:30;7.60;;;3.33;;
56435;SDS011;42335;44.872;20.658;2023-07-29T12:40:56;4.55;;;2.95;;
56435;SDS011;42335;44.872;20.658;2023-07-29T12:43:22;6.47;;;3.03;;
56435;SDS011;42335;44.872;20.658;2023-07-29T12:45:51;10.13;;;2.90;;
56435;SDS011;42335;44.872;20.658;2023-07-29T12:48:17;10.40;;;3.00;;
56435;SDS011;42335;44.872;20.658;2023-07-29T12:50:43;3.65;;;2.53;;
56435;SDS011;42335;44.872;20.658;2023-07-29T12:53:09;4.63;;;2.70;;
56435;SDS011;42335;44.872;20.658;2023-07-29T12:55:38;9.52;;;2.65;;
56435;SDS011;42335;44.872;20.658;2023-07-29T12:58:03;7.47;;;2.40;;
56435;SDS011;42335;44.872;20.658;2023-07-29T13:00:29;8.43;;;2.88;;
56435;SDS011;42335;44.872;20.658;2023-07-29T13:02:55;5.35;;;3.05;;
56435;SDS011;42335;44.872;20.658;2023-07-29T13:05:21;6.80;;;2.95;;
56435;SDS011;42335;44.872;20.658;2023-07-29T13:07:47;6.00;;;2.97;;
56435;SDS011;42335;44.872;20.658;2023-07-29T13:10:13;5.90;;;2.60;;
56435;SDS011;42335;44.872;20.658;2023-07-29T13:12:39;4.78;;;2.55;;
56435;SDS011;42335;44.872;20.658;2023-07-29T13:15:05;3.95;;;2.58;;
56435;SDS011;42335;44.872;20.658;2023-07-29T13:17:32;5.00;;;2.63;;
56435;SDS011;42335;44.872;20.658;2023-07-29T13:19:58;8.80;;;3.20;;
56435;SDS011;42335;44.872;20.658;2023-07-29T13:22:24;8.27;;;2.90;;
56435;SDS011;42335;44.872;20.658;2023-07-29T13:24:49;9.40;;;3.20;;
56435;SDS011;42335;44.872;20.658;2023-07-29T13:27:15;11.45;;;3.65;;
56435;SDS011;42335;44.872;20.658;2023-07-29T13:29:41;10.70;;;2.80;;
56435;SDS011;42335;44.872;20.658;2023-07-29T13:32:08;7.78;;;3.40;;
56435;SDS011;42335;44.872;20.658;2023-07-29T13:34:34;5.15;;;3.47;;
56435;SDS011;42335;44.872;20.658;2023-07-29T13:37:00;6.68;;;4.10;;
56435;SDS011;42335;44.872;20.658;2023-07-29T13:39:26;6.25;;;2.92;;
56435;SDS011;42335;44.872;20.658;2023-07-29T13:41:52;6.95;;;3.42;;
56435;SDS011;42335;44.872;20.658;2023-07-29T13:44:18;5.53;;;3.13;;
56435;SDS011;42335;44.872;20.658;2023-07-29T13:46:44;4.63;;;3.05;;
56435;SDS011;42335;44.872;20.658;2023-07-29T13:49:10;7.72;;;3.60;;
56435;SDS011;42335;44.872;20.658;2023-07-29T13:51:36;6.82;;;3.15;;
56435;SDS011;42335;44.872;20.658;2023-07-29T13:54:02;4.70;;;3.05;;
56435;SDS011;42335;44.872;20.658;2023-07-29T13:56:27;5.32;;;3.47;;
56435;SDS011;42335;44.872;20.658;2023-07-29T13:58:53;6.38;;;3.38;;
56435;SDS011;42335;44.872;20.658;2023-07-29T14:01:18;6.60;;;2.88;;
56435;SDS011;42335;44.872;20.658;2023-07-29T14:03:44;5.70;;;3.20;;
56435;SDS011;42335;44.872;20.658;2023-07-29T14:06:10;5.28;;;3.72;;
56435;SDS011;42335;44.872;20.658;2023-07-29T14:08:36;5.57;;;2.88;;
56435;SDS011;42335;44.872;20.658;2023-07-29T14:11:01;5.13;;;3.13;;
56435;SDS011;42335;44.872;20.658;2023-07-29T14:13:27;4.72;;;2.97;;
56435;SDS011;42335;44.872;20.658;2023-07-29T14:15:53;5.70;;;2.95;;
56435;SDS011;42335;44.872;20.658;2023-07-29T14:18:18;4.07;;;3.05;;
56435;SDS011;42335;44.872;20.658;2023-07-29T14:20:44;7.53;;;3.40;;
56435;SDS011;42335;44.872;20.658;2023-07-29T14:23:10;5.57;;;2.67;;
56435;SDS011;42335;44.872;20.658;2023-07-29T14:25:36;5.82;;;3.30;;
56435;SDS011;42335;44.872;20.658;2023-07-29T14:28:02;8.80;;;2.95;;
56435;SDS011;42335;44.872;20.658;2023-07-29T14:30:27;3.80;;;2.70;;
56435;SDS011;42335;44.872;20.658;2023-07-29T14:32:53;6.95;;;2.38;;
56435;SDS011;42335;44.872;20.658;2023-07-29T14:35:19;5.35;;;3.38;;
56435;SDS011;42335;44.872;20.658;2023-07-29T14:37:44;5.50;;;3.00;;
56435;SDS011;42335;44.872;20.658;2023-07-29T14:40:10;9.10;;;2.78;;
56435;SDS011;42335;44.872;20.658;2023-07-29T14:42:36;4.18;;;2.63;;